createdAt,value
2019-01-31T00:02:43.203Z,100.00
2019-01-31T00:05:46.590Z,100.00
2019-01-31T00:08:23.960Z,100.00
2019-01-31T00:11:07.503Z,100.00
2019-01-31T00:14:00.405Z,100.00
2019-01-31T00:16:37.770Z,100.00
2019-01-31T00:19:15.365Z,100.00
2019-01-31T00:21:47.009Z,100.00
2019-01-31T00:24:18.547Z,100.00
2019-01-31T00:26:56.119Z,100.00
2019-01-31T00:29:30.253Z,100.00
2019-01-31T00:32:18.658Z,100.00
2019-01-31T00:35:23.643Z,100.00
2019-01-31T00:38:11.488Z,100.00
2019-01-31T00:41:03.951Z,100.00
2019-01-31T00:43:47.374Z,100.00
2019-01-31T00:46:24.839Z,100.00
2019-01-31T00:49:13.305Z,100.00
2019-01-31T00:51:54.319Z,100.00
2019-01-31T00:54:31.611Z,100.00
2019-01-31T00:57:17.927Z,100.00
2019-01-31T01:00:06.512Z,100.00
2019-01-31T01:02:40.608Z,100.00
2019-01-31T01:05:23.711Z,100.00
2019-01-31T01:07:58.235Z,100.00
2019-01-31T01:10:29.810Z,100.00
2019-01-31T01:13:21.131Z,100.00
2019-01-31T01:15:58.709Z,100.00
2019-01-31T01:18:42.031Z,100.00
2019-01-31T01:21:34.228Z,100.00
2019-01-31T01:24:14.515Z,100.00
2019-01-31T01:26:54.901Z,100.00
2019-01-31T01:29:29.309Z,100.00
2019-01-31T01:32:09.638Z,100.00
2019-01-31T01:35:01.423Z,100.00
2019-01-31T01:37:47.630Z,100.00
2019-01-31T01:40:34.493Z,100.00
2019-01-31T01:43:06.069Z,100.00
2019-01-31T01:45:43.427Z,100.00
2019-01-31T01:48:15.231Z,100.00
2019-01-31T01:51:01.613Z,100.00
2019-01-31T01:53:38.748Z,100.00
2019-01-31T01:56:25.380Z,100.00
2019-01-31T01:58:59.942Z,100.00
2019-01-31T02:01:46.519Z,100.00
2019-01-31T02:04:33.127Z,100.00
2019-01-31T02:07:04.773Z,100.00
2019-01-31T02:09:36.429Z,100.00
2019-01-31T02:12:36.854Z,100.00
2019-01-31T02:15:40.576Z,100.00
2019-01-31T02:18:18.072Z,100.00
2019-01-31T02:20:58.514Z,100.00
2019-01-31T02:23:30.055Z,100.00
2019-01-31T02:26:22.885Z,100.00
2019-01-31T02:29:06.389Z,100.00
2019-01-31T02:31:52.980Z,100.00
2019-01-31T02:34:30.451Z,100.00
2019-01-31T02:37:10.677Z,100.00
2019-01-31T02:40:04.888Z,100.00
2019-01-31T02:42:45.486Z,100.00
2019-01-31T02:45:32.283Z,100.00
2019-01-31T02:48:09.533Z,100.00
2019-01-31T02:51:05.590Z,100.00
2019-01-31T02:53:58.194Z,100.00
2019-01-31T02:56:29.724Z,100.00
2019-01-31T02:59:07.277Z,100.00
2019-01-31T03:01:51.134Z,100.00
2019-01-31T03:04:28.628Z,100.00
2019-01-31T03:07:12.195Z,100.00
2019-01-31T03:09:54.883Z,100.00
2019-01-31T03:12:28.805Z,100.00
2019-01-31T03:15:00.395Z,100.00
2019-01-31T03:17:52.928Z,100.00
2019-01-31T03:20:33.764Z,100.00
2019-01-31T03:23:26.444Z,100.00
2019-01-31T03:26:06.662Z,100.00
2019-01-31T03:28:54.425Z,100.00
2019-01-31T03:31:43.989Z,100.00
2019-01-31T03:34:21.352Z,100.00
2019-01-31T03:37:09.710Z,100.00
2019-01-31T03:40:07.599Z,100.00
2019-01-31T03:42:42.151Z,100.00
2019-01-31T03:45:19.685Z,100.00
2019-01-31T03:47:51.562Z,100.00
2019-01-31T03:50:23.220Z,100.00
2019-01-31T03:53:09.658Z,100.00
2019-01-31T03:55:57.691Z,100.00
2019-01-31T03:58:32.479Z,100.00
2019-01-31T04:01:07.044Z,100.00
2019-01-31T04:03:38.777Z,100.00
2019-01-31T04:06:13.048Z,100.00
2019-01-31T04:08:41.676Z,100.00
2019-01-31T04:11:10.355Z,100.00
2019-01-31T04:13:39.099Z,100.00
2019-01-31T04:16:07.734Z,100.00
2019-01-31T04:18:36.410Z,100.00
2019-01-31T04:21:05.212Z,100.00
2019-01-31T04:23:33.935Z,100.00
2019-01-31T04:26:04.402Z,100.00
2019-01-31T04:28:33.037Z,100.00
2019-01-31T04:31:01.674Z,100.00
2019-01-31T04:33:30.365Z,100.00
2019-01-31T04:35:59.081Z,100.00
2019-01-31T04:38:27.799Z,100.00
2019-01-31T04:40:56.510Z,100.00
2019-01-31T04:43:25.142Z,100.00
2019-01-31T04:45:53.867Z,100.00
2019-01-31T04:48:22.533Z,100.00
2019-01-31T04:50:51.159Z,100.00
2019-01-31T04:53:19.829Z,100.00
2019-01-31T04:55:48.512Z,100.00
2019-01-31T04:58:17.230Z,100.00
2019-01-31T05:00:45.853Z,100.00
2019-01-31T05:03:14.785Z,100.00
2019-01-31T05:05:43.431Z,100.00
2019-01-31T05:08:12.133Z,100.00
2019-01-31T05:10:43.338Z,100.00
2019-01-31T05:13:11.149Z,100.00
2019-01-31T05:15:39.823Z,100.00
2019-01-31T05:18:08.710Z,100.00
2019-01-31T05:20:37.404Z,100.00
2019-01-31T05:23:06.040Z,100.00
2019-01-31T05:25:34.772Z,100.00
2019-01-31T05:28:03.456Z,100.00
2019-01-31T05:30:32.082Z,100.00
2019-01-31T05:33:00.831Z,100.00
2019-01-31T05:35:29.470Z,100.00
2019-01-31T05:37:58.119Z,100.00
2019-01-31T05:40:26.820Z,100.00
2019-01-31T05:42:55.433Z,100.00
2019-01-31T05:45:24.178Z,100.00
2019-01-31T05:47:52.827Z,100.00
2019-01-31T05:50:21.632Z,100.00
2019-01-31T05:52:50.541Z,100.00
2019-01-31T05:55:19.180Z,100.00
2019-01-31T05:57:47.822Z,100.00
2019-01-31T06:00:20.767Z,100.00
2019-01-31T06:02:49.472Z,100.00
2019-01-31T06:05:18.199Z,100.00
2019-01-31T06:07:46.860Z,100.00
2019-01-31T06:10:15.576Z,100.00
2019-01-31T06:12:44.277Z,100.00
2019-01-31T06:15:15.732Z,100.00
2019-01-31T06:17:44.481Z,100.00
2019-01-31T06:20:18.617Z,100.00
2019-01-31T06:22:47.304Z,100.00
2019-01-31T06:25:16.013Z,100.00
2019-01-31T06:27:44.709Z,100.00
2019-01-31T06:30:16.148Z,100.00
2019-01-31T06:32:45.048Z,100.00
2019-01-31T06:35:14.356Z,100.00
2019-01-31T06:37:43.371Z,100.00
2019-01-31T06:40:15.142Z,100.00
2019-01-31T06:42:43.764Z,100.00
2019-01-31T06:45:17.685Z,100.00
2019-01-31T06:47:46.382Z,100.00
2019-01-31T06:50:15.214Z,100.00
2019-01-31T06:52:43.972Z,100.00
2019-01-31T06:55:13.251Z,100.00
2019-01-31T06:57:41.930Z,100.00
2019-01-31T07:00:16.247Z,100.00
2019-01-31T07:02:44.945Z,100.00
2019-01-31T07:05:13.778Z,100.00
2019-01-31T07:07:42.649Z,100.00
2019-01-31T07:10:14.258Z,100.00
2019-01-31T07:12:42.963Z,100.00
2019-01-31T07:17:46.395Z,100.00
2019-01-31T07:20:16.798Z,100.00
2019-01-31T07:22:45.430Z,100.00
2019-01-31T07:25:22.270Z,100.00
2019-01-31T07:27:50.950Z,100.00
2019-01-31T07:30:26.321Z,100.00
2019-01-31T07:32:54.193Z,100.00
2019-01-31T07:35:22.843Z,100.00
2019-01-31T07:37:53.098Z,100.00
2019-01-31T07:40:23.128Z,100.00
2019-01-31T07:42:51.822Z,100.00
2019-01-31T07:45:29.167Z,100.00
2019-01-31T07:47:57.981Z,100.00
2019-01-31T07:50:26.631Z,100.00
2019-01-31T07:52:55.570Z,100.00
2019-01-31T07:55:24.276Z,100.00
2019-01-31T07:57:52.978Z,100.00
2019-01-31T08:00:23.446Z,100.00
2019-01-31T08:02:52.262Z,100.00
2019-01-31T08:05:22.771Z,100.00
2019-01-31T08:07:53.171Z,100.00
2019-01-31T08:10:31.454Z,100.00
2019-01-31T08:13:00.115Z,100.00
2019-01-31T08:15:28.809Z,100.00
2019-01-31T08:17:57.450Z,100.00
2019-01-31T08:20:26.439Z,100.00
2019-01-31T08:22:55.246Z,100.00
2019-01-31T08:25:25.208Z,99.90
2019-01-31T08:27:54.873Z,98.97
2019-01-31T08:30:37.788Z,98.90
2019-01-31T08:33:06.027Z,99.18
2019-01-31T08:35:34.810Z,100.00
2019-01-31T08:38:03.455Z,100.00
2019-01-31T08:40:32.295Z,100.00
2019-01-31T08:43:01.009Z,100.00
2019-01-31T08:45:29.638Z,100.00
2019-01-31T08:47:58.331Z,100.00
2019-01-31T08:50:29.335Z,100.00
2019-01-31T08:52:58.037Z,100.00
2019-01-31T08:55:26.734Z,100.00
2019-01-31T08:57:55.365Z,100.00
2019-01-31T09:00:29.521Z,97.58
2019-01-31T09:02:58.662Z,96.57
2019-01-31T09:05:27.560Z,96.21
2019-01-31T09:07:56.682Z,97.34
2019-01-31T09:10:30.489Z,97.47
2019-01-31T09:13:00.694Z,97.35
2019-01-31T09:15:29.429Z,96.46
2019-01-31T09:17:58.099Z,96.06
2019-01-31T09:20:30.066Z,94.25
2019-01-31T09:23:01.641Z,94.55
2019-01-31T09:25:42.434Z,89.70
2019-01-31T09:28:22.719Z,88.69
2019-01-31T09:30:54.437Z,88.76
2019-01-31T09:33:50.019Z,87.11
2019-01-31T09:36:39.749Z,85.32
2019-01-31T09:39:17.421Z,84.69
2019-01-31T09:42:08.606Z,82.61
2019-01-31T09:45:13.701Z,84.74
2019-01-31T09:47:54.148Z,84.43
2019-01-31T09:50:34.940Z,83.84
2019-01-31T09:53:18.508Z,87.55
2019-01-31T09:55:52.960Z,86.83
2019-01-31T09:58:24.543Z,86.52
2019-01-31T10:01:05.220Z,86.83
2019-01-31T10:03:39.581Z,89.14
2019-01-31T10:06:22.795Z,88.23
2019-01-31T10:09:12.499Z,89.06
2019-01-31T10:11:49.839Z,89.59
2019-01-31T10:14:26.922Z,89.55
2019-01-31T10:17:09.896Z,89.16
2019-01-31T10:19:47.316Z,87.74
2019-01-31T10:22:22.097Z,87.57
2019-01-31T10:25:16.630Z,86.83
2019-01-31T10:28:05.084Z,85.48
2019-01-31T10:30:51.345Z,85.83
2019-01-31T10:33:37.756Z,86.03
2019-01-31T10:36:20.916Z,85.12
2019-01-31T10:39:16.771Z,83.46
2019-01-31T10:41:59.690Z,80.91
2019-01-31T10:44:52.474Z,81.14
2019-01-31T10:47:39.269Z,82.06
2019-01-31T10:50:26.004Z,81.13
2019-01-31T10:53:17.283Z,80.18
2019-01-31T10:56:13.142Z,79.27
2019-01-31T10:58:54.006Z,80.15
2019-01-31T11:01:37.337Z,81.25
2019-01-31T11:04:27.144Z,80.27
2019-01-31T11:07:01.676Z,80.25
2019-01-31T11:09:39.341Z,80.14
2019-01-31T11:12:38.421Z,78.95
2019-01-31T11:15:10.078Z,80.11
2019-01-31T11:17:47.379Z,79.66
2019-01-31T11:20:38.491Z,79.78
2019-01-31T11:23:10.029Z,80.38
2019-01-31T11:25:59.620Z,80.29
2019-01-31T11:28:31.171Z,78.84
2019-01-31T11:31:22.553Z,79.37
2019-01-31T11:34:10.938Z,80.50
2019-01-31T11:36:42.520Z,81.91
2019-01-31T11:39:35.322Z,80.32
2019-01-31T11:42:26.517Z,81.53
2019-01-31T11:45:00.877Z,82.58
2019-01-31T11:47:38.193Z,82.31
2019-01-31T11:50:30.629Z,82.75
2019-01-31T11:53:05.170Z,83.47
2019-01-31T11:55:42.779Z,82.36
2019-01-31T11:58:40.274Z,83.12
2019-01-31T12:01:10.263Z,82.17
2019-01-31T12:03:38.894Z,82.25
2019-01-31T12:06:07.647Z,81.36
2019-01-31T12:08:36.363Z,81.28
2019-01-31T12:11:05.285Z,81.17
2019-01-31T12:13:34.033Z,80.74
2019-01-31T12:16:02.891Z,80.39
2019-01-31T12:18:31.607Z,81.40
2019-01-31T12:21:00.590Z,80.90
2019-01-31T12:23:32.270Z,80.01
2019-01-31T12:25:59.813Z,79.20
2019-01-31T12:28:28.553Z,80.47
2019-01-31T12:30:57.300Z,80.93
2019-01-31T12:33:25.983Z,80.85
2019-01-31T12:35:54.890Z,81.09
2019-01-31T12:38:23.497Z,80.55
2019-01-31T12:40:52.122Z,81.59
2019-01-31T12:43:20.901Z,80.73
2019-01-31T12:45:49.577Z,81.09
2019-01-31T12:48:18.207Z,80.88
2019-01-31T12:50:46.875Z,79.94
2019-01-31T12:53:15.581Z,79.76
2019-01-31T12:55:44.301Z,79.33
2019-01-31T12:58:13.033Z,79.16
2019-01-31T13:00:41.742Z,78.97
2019-01-31T13:03:10.452Z,78.87
2019-01-31T13:05:39.341Z,79.97
2019-01-31T13:08:08.061Z,80.56
2019-01-31T13:10:36.762Z,79.94
2019-01-31T13:13:06.188Z,79.15
2019-01-31T13:15:40.852Z,78.76
2019-01-31T13:18:10.149Z,80.25
2019-01-31T13:20:39.017Z,80.92
2019-01-31T13:23:07.758Z,82.41
2019-01-31T13:25:36.357Z,82.48
2019-01-31T13:28:05.305Z,82.13
2019-01-31T13:30:33.980Z,84.88
2019-01-31T13:33:02.775Z,90.53
2019-01-31T13:35:31.539Z,90.51
2019-01-31T13:38:00.243Z,90.93
2019-01-31T13:40:28.957Z,91.54
2019-01-31T13:42:57.731Z,93.10
2019-01-31T13:45:29.263Z,92.28
2019-01-31T13:47:59.783Z,94.51
2019-01-31T13:50:28.729Z,93.75
2019-01-31T13:52:57.536Z,94.29
2019-01-31T13:55:28.530Z,92.78
2019-01-31T13:57:57.199Z,93.99
2019-01-31T14:00:26.136Z,94.32
2019-01-31T14:02:54.928Z,94.46
2019-01-31T14:05:25.614Z,95.08
2019-01-31T14:07:54.587Z,95.33
2019-01-31T14:10:27.260Z,94.64
2019-01-31T14:12:56.125Z,95.01
2019-01-31T14:15:33.559Z,93.69
2019-01-31T14:17:58.328Z,93.65
2019-01-31T14:20:28.497Z,93.61
2019-01-31T14:22:57.318Z,93.67
2019-01-31T14:25:26.084Z,93.58
2019-01-31T14:27:54.944Z,93.12
2019-01-31T14:30:29.383Z,92.35
2019-01-31T14:32:58.622Z,90.66
2019-01-31T14:35:27.753Z,90.94
2019-01-31T14:37:56.454Z,89.83
2019-01-31T14:40:25.546Z,91.40
2019-01-31T14:42:54.450Z,91.29
2019-01-31T14:45:23.071Z,90.06
2019-01-31T14:47:58.406Z,90.89
2019-01-31T14:50:29.605Z,92.57
2019-01-31T14:52:58.538Z,92.30
2019-01-31T14:55:27.299Z,92.22
2019-01-31T14:57:56.378Z,94.16
2019-01-31T15:00:27.687Z,94.80
2019-01-31T15:02:56.299Z,95.92
2019-01-31T15:05:25.141Z,96.19
2019-01-31T15:07:53.768Z,96.75
2019-01-31T15:10:27.768Z,97.40
2019-01-31T15:12:56.597Z,97.94
2019-01-31T15:15:25.483Z,99.31
2019-01-31T15:17:54.402Z,99.63
2019-01-31T15:20:38.081Z,98.03
2019-01-31T15:23:05.426Z,97.40
2019-01-31T15:25:34.053Z,100.00
2019-01-31T15:28:02.713Z,100.00
2019-01-31T15:30:38.162Z,100.00
2019-01-31T15:33:09.394Z,100.00
2019-01-31T15:35:38.019Z,100.00
2019-01-31T15:38:06.780Z,100.00
2019-01-31T15:40:46.648Z,100.00
2019-01-31T15:43:15.332Z,100.00
2019-01-31T15:45:44.045Z,100.00
2019-01-31T15:48:12.934Z,100.00
2019-01-31T15:50:41.606Z,100.00
2019-01-31T15:53:10.260Z,100.00
2019-01-31T15:55:39.270Z,100.00
2019-01-31T15:58:08.319Z,100.00
2019-01-31T16:00:45.679Z,100.00
2019-01-31T16:03:16.427Z,100.00
2019-01-31T16:05:45.124Z,100.00
2019-01-31T16:08:13.817Z,100.00
2019-01-31T16:10:42.575Z,100.00
2019-01-31T16:13:11.385Z,100.00
2019-01-31T16:15:40.652Z,100.00
2019-01-31T16:18:11.130Z,100.00
2019-01-31T16:20:40.161Z,100.00
2019-01-31T16:23:09.671Z,100.00
2019-01-31T16:25:38.467Z,100.00
2019-01-31T16:28:07.403Z,100.00
2019-01-31T16:30:36.098Z,100.00
2019-01-31T16:33:05.383Z,100.00
2019-01-31T16:35:34.079Z,100.00
2019-01-31T16:38:02.971Z,100.00
2019-01-31T16:40:31.964Z,100.00
2019-01-31T16:43:01.151Z,100.00
2019-01-31T16:45:29.989Z,100.00
2019-01-31T16:47:58.741Z,100.00
2019-01-31T16:50:27.479Z,100.00
2019-01-31T16:52:56.104Z,100.00
2019-01-31T16:55:27.897Z,100.00
2019-01-31T16:57:57.701Z,100.00
2019-01-31T17:00:34.041Z,100.00
2019-01-31T17:03:05.140Z,100.00
2019-01-31T17:05:33.656Z,100.00
2019-01-31T17:08:02.485Z,100.00
2019-01-31T17:10:31.138Z,100.00
2019-01-31T17:13:00.039Z,100.00
2019-01-31T17:15:28.929Z,100.00
2019-01-31T17:17:57.837Z,100.00
2019-01-31T17:20:32.504Z,100.00
2019-01-31T17:23:01.190Z,100.00
2019-01-31T17:25:29.935Z,100.00
2019-01-31T17:27:58.993Z,100.00
2019-01-31T17:30:29.132Z,100.00
2019-01-31T17:33:00.234Z,100.00
2019-01-31T17:35:28.216Z,100.00
2019-01-31T17:37:56.849Z,100.00
2019-01-31T17:40:31.318Z,100.00
2019-01-31T17:43:00.172Z,100.00
2019-01-31T17:45:30.834Z,100.00
2019-01-31T17:47:59.559Z,100.00
2019-01-31T17:50:28.501Z,100.00
2019-01-31T17:52:57.130Z,100.00
2019-01-31T17:55:27.292Z,100.00
2019-01-31T17:57:55.990Z,100.00
2019-01-31T18:00:33.845Z,100.00
2019-01-31T18:03:02.813Z,100.00
2019-01-31T18:05:31.504Z,100.00
2019-01-31T18:08:00.443Z,100.00
2019-01-31T18:10:29.196Z,100.00
2019-01-31T18:12:57.947Z,100.00
2019-01-31T18:15:27.175Z,100.00
2019-01-31T18:17:55.804Z,100.00
2019-01-31T18:20:24.818Z,100.00
2019-01-31T18:22:53.686Z,100.00
2019-01-31T18:25:22.361Z,100.00
2019-01-31T18:27:53.081Z,100.00
2019-01-31T18:30:29.698Z,100.00
2019-01-31T18:32:58.407Z,100.00
2019-01-31T18:35:27.120Z,100.00
2019-01-31T18:37:55.777Z,100.00
2019-01-31T18:40:26.963Z,100.00
2019-01-31T18:42:55.657Z,100.00
2019-01-31T18:45:26.584Z,100.00
2019-01-31T18:47:55.220Z,100.00
2019-01-31T18:50:34.795Z,100.00
2019-01-31T18:53:03.614Z,100.00
2019-01-31T18:55:32.462Z,100.00
2019-01-31T18:58:01.156Z,100.00
2019-01-31T19:00:32.656Z,100.00
2019-01-31T19:03:01.445Z,100.00
2019-01-31T19:05:30.618Z,100.00
2019-01-31T19:07:59.322Z,100.00
2019-01-31T19:10:28.005Z,100.00
2019-01-31T19:12:56.865Z,100.00
2019-01-31T19:15:27.292Z,100.00
2019-01-31T19:18:05.502Z,99.78
2019-01-31T19:20:31.634Z,98.67
2019-01-31T19:23:02.540Z,96.87
2019-01-31T19:25:32.438Z,97.51
2019-01-31T19:28:01.445Z,96.86
2019-01-31T19:30:35.549Z,96.15
2019-01-31T19:33:05.062Z,96.57
2019-01-31T19:35:33.826Z,97.23
2019-01-31T19:38:02.696Z,96.01
2019-01-31T19:40:33.608Z,97.66
2019-01-31T19:43:02.277Z,98.63
2019-01-31T19:45:33.625Z,99.26
2019-01-31T19:48:05.238Z,100.00
2019-01-31T19:50:33.059Z,100.00
2019-01-31T19:53:01.799Z,100.00
2019-01-31T19:55:30.443Z,100.00
2019-01-31T19:57:59.160Z,100.00
2019-01-31T20:00:28.395Z,100.00
2019-01-31T20:02:57.027Z,100.00
2019-01-31T20:05:26.212Z,100.00
2019-01-31T20:07:55.414Z,100.00
2019-01-31T20:10:27.034Z,100.00
2019-01-31T20:12:56.281Z,100.00
2019-01-31T20:15:25.466Z,100.00
2019-01-31T20:17:54.347Z,100.00
2019-01-31T20:20:29.977Z,100.00
2019-01-31T20:22:59.898Z,100.00
2019-01-31T20:25:30.098Z,100.00
2019-01-31T20:27:58.848Z,100.00
2019-01-31T20:30:29.757Z,100.00
2019-01-31T20:32:59.260Z,100.00
2019-01-31T20:35:28.036Z,100.00
2019-01-31T20:37:56.661Z,100.00
2019-01-31T20:40:28.031Z,100.00
2019-01-31T20:42:56.713Z,100.00
2019-01-31T20:45:25.627Z,100.00
2019-01-31T20:47:54.247Z,100.00
2019-01-31T20:50:28.074Z,100.00
2019-01-31T20:52:56.986Z,100.00
2019-01-31T20:55:25.619Z,100.00
2019-01-31T20:57:54.454Z,100.00
2019-01-31T21:00:33.745Z,100.00
2019-01-31T21:03:02.880Z,100.00
2019-01-31T21:05:31.701Z,99.28
2019-01-31T21:08:00.381Z,98.08
2019-01-31T21:10:29.128Z,96.56
2019-01-31T21:12:57.742Z,96.39
2019-01-31T21:15:26.855Z,96.27
2019-01-31T21:17:55.756Z,96.18
2019-01-31T21:20:26.771Z,95.84
2019-01-31T21:22:55.750Z,96.39
2019-01-31T21:25:27.655Z,97.10
2019-01-31T21:27:56.363Z,97.24
2019-01-31T21:30:36.732Z,97.31
2019-01-31T21:33:05.529Z,96.93
2019-01-31T21:35:34.419Z,96.83
2019-01-31T21:38:03.173Z,96.84
2019-01-31T21:40:33.659Z,96.77
2019-01-31T21:43:02.345Z,96.07
2019-01-31T21:45:31.392Z,95.68
2019-01-31T21:48:00.020Z,95.45
2019-01-31T21:50:32.748Z,94.76
2019-01-31T21:53:01.482Z,95.39
2019-01-31T21:55:30.168Z,95.71
2019-01-31T21:57:58.860Z,95.78
2019-01-31T22:00:29.928Z,96.47
2019-01-31T22:02:58.738Z,96.99
2019-01-31T22:05:27.428Z,96.77
2019-01-31T22:07:56.203Z,96.32
2019-01-31T22:10:25.806Z,96.13
2019-01-31T22:12:54.620Z,96.29
2019-01-31T22:15:27.891Z,96.92
2019-01-31T22:17:59.937Z,96.78
2019-01-31T22:20:26.959Z,96.41
2019-01-31T22:22:56.258Z,95.96
2019-01-31T22:25:26.284Z,96.02
2019-01-31T22:27:54.968Z,95.28
2019-01-31T22:30:31.741Z,94.71
2019-01-31T22:33:00.361Z,94.14
2019-01-31T22:35:29.047Z,94.37
2019-01-31T22:37:57.709Z,94.86
2019-01-31T22:40:26.414Z,95.33
2019-01-31T22:42:55.034Z,95.82
2019-01-31T22:45:24.778Z,96.65
2019-01-31T22:47:54.890Z,97.75
2019-01-31T22:50:24.076Z,98.54
2019-01-31T22:52:52.941Z,99.14
2019-01-31T22:55:23.557Z,99.82
2019-01-31T22:57:52.426Z,100.00
2019-01-31T23:00:31.742Z,100.00
2019-01-31T23:03:00.400Z,100.00
2019-01-31T23:05:29.032Z,100.00
2019-01-31T23:07:57.857Z,100.00
2019-01-31T23:10:26.483Z,100.00
2019-01-31T23:12:55.210Z,100.00
2019-01-31T23:15:23.887Z,100.00
2019-01-31T23:17:52.509Z,100.00
2019-01-31T23:20:21.126Z,100.00
2019-01-31T23:22:49.834Z,100.00
2019-01-31T23:25:18.585Z,100.00
2019-01-31T23:27:47.213Z,100.00
2019-01-31T23:30:17.522Z,100.00
2019-01-31T23:32:46.207Z,100.00
2019-01-31T23:35:14.908Z,100.00
2019-01-31T23:37:43.784Z,100.00
2019-01-31T23:40:14.211Z,100.00
2019-01-31T23:42:50.832Z,100.00
2019-01-31T23:45:20.286Z,100.00
2019-01-31T23:47:49.368Z,100.00
2019-01-31T23:50:18.368Z,100.00
2019-01-31T23:52:47.375Z,100.00
2019-01-31T23:55:19.170Z,100.00
2019-01-31T23:57:47.790Z,100.00
